NY62 weather

Curtis Airport
Verona, New York, United States

Public forecast

Using degrees Fahrenheit for public forecast. Weather courtesy of forecast.io.

Closest aviation weather report (METAR) to Curtis Airport

Closest report is Griffiss International Airport, 7.9 nm (14.7 km) NE. Retrieved 2020/02/24 01:53 UTC (9 minutes ago):

KRME 240153Z 00000KT 10SM CLR M03/M07 A3001 RMK AO2 SLP167 T10281072

Closest aviation forecast (TAF) to Curtis Airport

Closest forecast is Griffiss International Airport, 7.9 nm (14.7 km) NE. Retrieved 2020-02-24 00:22 UTC (2 hours ago):

TAF KRME 232320Z 2400/2424 VRB04KT P6SM FEW250 FM241900 28006KT P6SM BKN200 FM242200 00000KT P6SM BKN027